sensor_id;sensor_type;location;lat;lon;timestamp;pressure;altitude;pressure_sealevel;temperature;humidity
19759;BME280;10038;42.662;23.278;2023-05-11T00:00:47;161307.47;;;9.94;93.48
19759;BME280;10038;42.662;23.278;2023-05-11T00:03:14;161303.50;;;9.93;93.51
19759;BME280;10038;42.662;23.278;2023-05-11T00:05:41;161282.19;;;9.85;93.38
19759;BME280;10038;42.662;23.278;2023-05-11T00:08:08;161271.50;;;9.81;93.30
19759;BME280;10038;42.662;23.278;2023-05-11T00:10:36;161279.50;;;9.84;93.36
19759;BME280;10038;42.662;23.278;2023-05-11T00:13:03;161268.88;;;9.80;93.47
19759;BME280;10038;42.662;23.278;2023-05-11T00:15:30;161274.19;;;9.82;93.21
19759;BME280;10038;42.662;23.278;2023-05-11T00:17:57;161252.88;;;9.74;93.40
19759;BME280;10038;42.662;23.278;2023-05-11T00:20:24;161252.88;;;9.74;92.96
19759;BME280;10038;42.662;23.278;2023-05-11T00:22:51;161244.88;;;9.71;92.95
19759;BME280;10038;42.662;23.278;2023-05-11T00:25:18;161234.25;;;9.67;93.54
19759;BME280;10038;42.662;23.278;2023-05-11T00:27:46;161250.19;;;9.73;93.02
19759;BME280;10038;42.662;23.278;2023-05-11T00:30:13;161236.88;;;9.68;93.24
19759;BME280;10038;42.662;23.278;2023-05-11T00:32:41;161222.22;;;9.62;93.20
19759;BME280;10038;42.662;23.278;2023-05-11T00:35:08;161231.56;;;9.66;93.41
19759;BME280;10038;42.662;23.278;2023-05-11T00:37:36;161215.56;;;9.60;93.69
19759;BME280;10038;42.662;23.278;2023-05-11T00:40:05;161219.59;;;9.61;93.78
19759;BME280;10038;42.662;23.278;2023-05-11T00:42:32;161215.56;;;9.60;94.00
19759;BME280;10038;42.662;23.278;2023-05-11T00:45:01;161215.56;;;9.60;94.20
19759;BME280;10038;42.662;23.278;2023-05-11T00:47:28;161226.25;;;9.64;93.89
19759;BME280;10038;42.662;23.278;2023-05-11T00:49:56;161216.91;;;9.60;94.07
19759;BME280;10038;42.662;23.278;2023-05-11T00:52:23;161204.94;;;9.56;94.24
19759;BME280;10038;42.662;23.278;2023-05-11T00:54:51;161215.56;;;9.60;94.39
19759;BME280;10038;42.662;23.278;2023-05-11T00:57:18;161207.56;;;9.57;94.53
19759;BME280;10038;42.662;23.278;2023-05-11T00:59:46;161196.94;;;9.53;94.59
19759;BME280;10038;42.662;23.278;2023-05-11T01:02:15;161171.59;;;9.43;94.75
19759;BME280;10038;42.662;23.278;2023-05-11T01:04:42;161167.63;;;9.41;95.05
19759;BME280;10038;42.662;23.278;2023-05-11T01:07:12;161174.28;;;9.44;94.92
19759;BME280;10038;42.662;23.278;2023-05-11T01:09:47;161178.25;;;9.45;95.05
19759;BME280;10038;42.662;23.278;2023-05-11T01:12:25;161155.63;;;9.37;95.37
19759;BME280;10038;42.662;23.278;2023-05-11T01:14:59;161006.50;;;8.80;95.62
19759;BME280;10038;42.662;23.278;2023-05-11T01:17:35;161143.66;;;9.32;95.79
19759;BME280;10038;42.662;23.278;2023-05-11T01:20:06;161127.66;;;9.26;95.65
19759;BME280;10038;42.662;23.278;2023-05-11T01:22:45;161127.66;;;9.26;95.78
19759;BME280;10038;42.662;23.278;2023-05-11T01:25:26;161123.69;;;9.25;95.97
19759;BME280;10038;42.662;23.278;2023-05-11T01:28:22;161106.34;;;9.18;95.47
19759;BME280;10038;42.662;23.278;2023-05-11T01:30:53;161101.03;;;9.16;95.73
19759;BME280;10038;42.662;23.278;2023-05-11T01:33:26;161113.00;;;9.21;95.73
19759;BME280;10038;42.662;23.278;2023-05-11T01:36:02;161113.00;;;9.21;95.25
19759;BME280;10038;42.662;23.278;2023-05-11T01:38:34;161111.66;;;9.20;95.08
19759;BME280;10038;42.662;23.278;2023-05-11T01:41:07;161119.66;;;9.23;94.78
19759;BME280;10038;42.662;23.278;2023-05-11T01:43:36;161121.00;;;9.24;94.73
19759;BME280;10038;42.662;23.278;2023-05-11T01:46:08;161109.03;;;9.19;94.26
19759;BME280;10038;42.662;23.278;2023-05-11T01:48:38;161117.03;;;9.22;94.22
19759;BME280;10038;42.662;23.278;2023-05-11T01:51:06;161110.38;;;9.20;94.12
19759;BME280;10038;42.662;23.278;2023-05-11T01:53:36;161107.69;;;9.19;94.08
19759;BME280;10038;42.662;23.278;2023-05-11T01:56:04;161106.34;;;9.18;93.90
19759;BME280;10038;42.662;23.278;2023-05-11T01:58:33;161114.34;;;9.21;93.66
19759;BME280;10038;42.662;23.278;2023-05-11T02:01:03;161114.34;;;9.21;93.88
19759;BME280;10038;42.662;23.278;2023-05-11T02:03:34;161091.72;;;9.13;93.39
19759;BME280;10038;42.662;23.278;2023-05-11T02:06:04;161131.69;;;9.28;93.16
19759;BME280;10038;42.662;23.278;2023-05-11T02:08:31;161138.34;;;9.30;92.96
19759;BME280;10038;42.662;23.278;2023-05-11T02:11:01;161134.31;;;9.29;92.78
19759;BME280;10038;42.662;23.278;2023-05-11T02:13:29;161138.34;;;9.30;92.61
19759;BME280;10038;42.662;23.278;2023-05-11T02:15:57;161146.34;;;9.33;92.24
19759;BME280;10038;42.662;23.278;2023-05-11T02:18:27;161146.34;;;9.33;91.98
19759;BME280;10038;42.662;23.278;2023-05-11T02:20:57;161148.97;;;9.34;91.73
19759;BME280;10038;42.662;23.278;2023-05-11T02:23:25;161151.66;;;9.35;91.44
19759;BME280;10038;42.662;23.278;2023-05-11T02:25:53;161066.44;;;9.03;91.54
19759;BME280;10038;42.662;23.278;2023-05-11T02:28:21;161142.31;;;9.32;91.52
19759;BME280;10038;42.662;23.278;2023-05-11T02:30:51;161039.78;;;8.93;90.87
19759;BME280;10038;42.662;23.278;2023-05-11T02:33:20;161115.69;;;9.22;91.35
19759;BME280;10038;42.662;23.278;2023-05-11T02:35:49;161118.38;;;9.23;91.15
19759;BME280;10038;42.662;23.278;2023-05-11T02:38:19;161130.34;;;9.27;90.99
19759;BME280;10038;42.662;23.278;2023-05-11T02:40:49;161133.03;;;9.28;91.04
19759;BME280;10038;42.662;23.278;2023-05-11T02:43:21;161135.66;;;9.29;90.44
19759;BME280;10038;42.662;23.278;2023-05-11T02:45:51;161017.13;;;8.84;90.50
19759;BME280;10038;42.662;23.278;2023-05-11T02:48:22;161103.72;;;9.17;90.65
19759;BME280;10038;42.662;23.278;2023-05-11T02:50:51;161087.72;;;9.11;91.10
19759;BME280;10038;42.662;23.278;2023-05-11T02:53:24;161063.75;;;9.02;91.50
19759;BME280;10038;42.662;23.278;2023-05-11T02:55:53;161049.09;;;8.97;91.83
19759;BME280;10038;42.662;23.278;2023-05-11T02:58:21;161042.44;;;8.94;91.72
19759;BME280;10038;42.662;23.278;2023-05-11T03:00:48;160882.72;;;8.34;91.81
19759;BME280;10038;42.662;23.278;2023-05-11T03:03:15;161015.84;;;8.84;92.03
19759;BME280;10038;42.662;23.278;2023-05-11T03:05:42;161010.47;;;8.82;92.23
19759;BME280;10038;42.662;23.278;2023-05-11T03:08:09;161002.47;;;8.79;92.50
19759;BME280;10038;42.662;23.278;2023-05-11T03:10:38;161015.84;;;8.84;92.54
19759;BME280;10038;42.662;23.278;2023-05-11T03:13:06;160999.84;;;8.78;92.45
19759;BME280;10038;42.662;23.278;2023-05-11T03:15:34;161001.19;;;8.78;92.66
19759;BME280;10038;42.662;23.278;2023-05-11T03:18:02;160994.53;;;8.76;92.71
19759;BME280;10038;42.662;23.278;2023-05-11T03:20:30;160974.53;;;8.68;92.51
19759;BME280;10038;42.662;23.278;2023-05-11T03:23:00;161010.47;;;8.82;92.85
19759;BME280;10038;42.662;23.278;2023-05-11T03:25:28;161013.16;;;8.83;92.47
19759;BME280;10038;42.662;23.278;2023-05-11T03:27:57;161005.16;;;8.80;92.68
19759;BME280;10038;42.662;23.278;2023-05-11T03:30:25;161013.16;;;8.83;92.59
19759;BME280;10038;42.662;23.278;2023-05-11T03:32:53;161021.16;;;8.86;92.50
19759;BME280;10038;42.662;23.278;2023-05-11T03:35:21;161021.16;;;8.86;92.60
19759;BME280;10038;42.662;23.278;2023-05-11T03:37:53;161011.81;;;8.82;92.91
19759;BME280;10038;42.662;23.278;2023-05-11T03:40:23;160997.19;;;8.77;93.07
19759;BME280;10038;42.662;23.278;2023-05-11T03:42:52;161023.84;;;8.87;93.17
19759;BME280;10038;42.662;23.278;2023-05-11T03:45:22;161013.16;;;8.83;93.33
19759;BME280;10038;42.662;23.278;2023-05-11T03:47:50;160945.25;;;8.57;93.07
19759;BME280;10038;42.662;23.278;2023-05-11T03:50:18;161005.16;;;8.80;92.76
19759;BME280;10038;42.662;23.278;2023-05-11T03:52:46;161014.50;;;8.83;92.97
19759;BME280;10038;42.662;23.278;2023-05-11T03:55:13;161018.47;;;8.85;92.99
19759;BME280;10038;42.662;23.278;2023-05-11T03:57:40;161015.84;;;8.84;92.96
19759;BME280;10038;42.662;23.278;2023-05-11T04:00:09;161003.81;;;8.79;92.84
19759;BME280;10038;42.662;23.278;2023-05-11T04:02:38;161018.47;;;8.85;92.63
19759;BME280;10038;42.662;23.278;2023-05-11T04:05:06;160938.59;;;8.55;92.79
19759;BME280;10038;42.662;23.278;2023-05-11T04:07:35;160983.88;;;8.72;93.02
19759;BME280;10038;42.662;23.278;2023-05-11T04:10:02;160997.19;;;8.77;93.19
19759;BME280;10038;42.662;23.278;2023-05-11T04:12:29;161010.47;;;8.82;93.10
19759;BME280;10038;42.662;23.278;2023-05-11T04:14:56;161007.84;;;8.81;93.14
19759;BME280;10038;42.662;23.278;2023-05-11T04:17:23;160926.63;;;8.50;93.17
19759;BME280;10038;42.662;23.278;2023-05-11T04:19:51;160991.88;;;8.75;93.04
19759;BME280;10038;42.662;23.278;2023-05-11T04:22:19;161015.84;;;8.84;93.07
19759;BME280;10038;42.662;23.278;2023-05-11T04:24:45;161018.47;;;8.85;93.37
19759;BME280;10038;42.662;23.278;2023-05-11T04:27:12;161014.50;;;8.83;93.53
19759;BME280;10038;42.662;23.278;2023-05-11T04:29:40;161003.81;;;8.79;93.88
19759;BME280;10038;42.662;23.278;2023-05-11T04:32:08;161025.13;;;8.87;93.70
19759;BME280;10038;42.662;23.278;2023-05-11T04:34:35;161030.50;;;8.89;93.90
19759;BME280;10038;42.662;23.278;2023-05-11T04:37:03;161027.81;;;8.88;94.00
19759;BME280;10038;42.662;23.278;2023-05-11T04:39:31;160998.50;;;8.77;94.19
19759;BME280;10038;42.662;23.278;2023-05-11T04:41:59;161029.16;;;8.89;94.18
19759;BME280;10038;42.662;23.278;2023-05-11T04:44:26;161046.41;;;8.96;93.85
19759;BME280;10038;42.662;23.278;2023-05-11T04:46:53;161018.47;;;8.85;93.84
19759;BME280;10038;42.662;23.278;2023-05-11T04:49:21;160915.97;;;8.46;93.73
19759;BME280;10038;42.662;23.278;2023-05-11T04:51:48;161018.47;;;8.85;94.38
19759;BME280;10038;42.662;23.278;2023-05-11T04:54:16;160909.31;;;8.44;94.72
19759;BME280;10038;42.662;23.278;2023-05-11T04:56:43;160982.53;;;8.71;94.90
19759;BME280;10038;42.662;23.278;2023-05-11T04:59:10;160985.22;;;8.72;94.83
19759;BME280;10038;42.662;23.278;2023-05-11T05:01:37;160989.19;;;8.74;95.15
19759;BME280;10038;42.662;23.278;2023-05-11T05:04:04;160869.41;;;8.28;95.58
19759;BME280;10038;42.662;23.278;2023-05-11T05:06:31;161029.16;;;8.89;95.38
19759;BME280;10038;42.662;23.278;2023-05-11T05:08:58;161063.75;;;9.02;94.83
19759;BME280;10038;42.662;23.278;2023-05-11T05:11:27;160999.84;;;8.78;94.71
19759;BME280;10038;42.662;23.278;2023-05-11T05:13:53;161078.41;;;9.08;94.67
19759;BME280;10038;42.662;23.278;2023-05-11T05:16:21;161090.38;;;9.12;94.67
19759;BME280;10038;42.662;23.278;2023-05-11T05:18:48;161105.00;;;9.18;94.65
19759;BME280;10038;42.662;23.278;2023-05-11T05:21:15;161110.38;;;9.20;94.45
19759;BME280;10038;42.662;23.278;2023-05-11T05:23:42;161130.34;;;9.27;94.49
19759;BME280;10038;42.662;23.278;2023-05-11T05:26:09;161130.34;;;9.27;94.20
19759;BME280;10038;42.662;23.278;2023-05-11T05:28:37;161135.66;;;9.29;94.56
19759;BME280;10038;42.662;23.278;2023-05-11T05:31:05;161133.03;;;9.28;94.17
19759;BME280;10038;42.662;23.278;2023-05-11T05:33:33;161145.00;;;9.33;94.19
19759;BME280;10038;42.662;23.278;2023-05-11T05:36:00;161171.59;;;9.43;93.25
19759;BME280;10038;42.662;23.278;2023-05-11T05:38:27;161148.97;;;9.34;93.61
19759;BME280;10038;42.662;23.278;2023-05-11T05:40:54;161170.28;;;9.42;94.13
19759;BME280;10038;42.662;23.278;2023-05-11T05:43:21;161203.59;;;9.55;93.01
19759;BME280;10038;42.662;23.278;2023-05-11T05:45:49;161159.63;;;9.38;93.13
19759;BME280;10038;42.662;23.278;2023-05-11T05:48:16;161167.63;;;9.41;93.17
19759;BME280;10038;42.662;23.278;2023-05-11T05:50:43;161208.91;;;9.57;92.90
19759;BME280;10038;42.662;23.278;2023-05-11T05:53:10;161055.75;;;8.99;91.81
19759;BME280;10038;42.662;23.278;2023-05-11T05:55:37;161246.22;;;9.71;91.62
19759;BME280;10038;42.662;23.278;2023-05-11T05:58:04;161244.88;;;9.71;91.78
19759;BME280;10038;42.662;23.278;2023-05-11T06:00:31;161268.88;;;9.80;91.53
19759;BME280;10038;42.662;23.278;2023-05-11T06:02:59;161278.16;;;9.83;90.93
19759;BME280;10038;42.662;23.278;2023-05-11T06:05:26;161286.16;;;9.86;90.49
19759;BME280;10038;42.662;23.278;2023-05-11T06:07:53;161284.88;;;9.86;90.31
19759;BME280;10038;42.662;23.278;2023-05-11T06:10:20;161304.84;;;9.93;90.01
19759;BME280;10038;42.662;23.278;2023-05-11T06:12:47;161344.78;;;10.08;89.73
19759;BME280;10038;42.662;23.278;2023-05-11T06:15:14;161331.47;;;10.03;90.09
19759;BME280;10038;42.662;23.278;2023-05-11T06:17:41;161315.47;;;9.97;89.94
19759;BME280;10038;42.662;23.278;2023-05-11T06:20:11;161344.78;;;10.08;89.81
19759;BME280;10038;42.662;23.278;2023-05-11T06:22:38;161284.88;;;9.86;90.15
19759;BME280;10038;42.662;23.278;2023-05-11T06:25:06;161222.22;;;9.62;89.61
19759;BME280;10038;42.662;23.278;2023-05-11T06:27:33;161276.88;;;9.83;90.14
19759;BME280;10038;42.662;23.278;2023-05-11T06:30:00;161316.81;;;9.98;89.87
19759;BME280;10038;42.662;23.278;2023-05-11T06:32:27;161343.44;;;10.08;89.13
19759;BME280;10038;42.662;23.278;2023-05-11T06:34:54;161295.50;;;9.90;90.00
19759;BME280;10038;42.662;23.278;2023-05-11T06:37:22;161263.56;;;9.78;90.11
19759;BME280;10038;42.662;23.278;2023-05-11T06:39:49;161303.50;;;9.93;90.32
19759;BME280;10038;42.662;23.278;2023-05-11T06:42:16;161279.50;;;9.84;90.31
19759;BME280;10038;42.662;23.278;2023-05-11T06:44:43;161304.84;;;9.93;90.79
19759;BME280;10038;42.662;23.278;2023-05-11T06:47:10;161264.84;;;9.78;91.11
19759;BME280;10038;42.662;23.278;2023-05-11T06:49:37;161226.25;;;9.64;90.55
19759;BME280;10038;42.662;23.278;2023-05-11T06:52:05;161314.19;;;9.97;90.04
19759;BME280;10038;42.662;23.278;2023-05-11T06:54:34;161372.81;;;10.19;88.94
19759;BME280;10038;42.662;23.278;2023-05-11T06:57:02;161398.16;;;10.29;88.69
19759;BME280;10038;42.662;23.278;2023-05-11T06:59:29;161474.16;;;10.57;87.01
19759;BME280;10038;42.662;23.278;2023-05-11T07:01:56;161515.47;;;10.73;86.69
19759;BME280;10038;42.662;23.278;2023-05-11T07:04:23;161567.50;;;10.93;85.95
19759;BME280;10038;42.662;23.278;2023-05-11T07:06:50;161586.13;;;11.00;85.01
19759;BME280;10038;42.662;23.278;2023-05-11T07:09:17;161570.13;;;10.94;85.87
19759;BME280;10038;42.662;23.278;2023-05-11T07:11:46;161612.78;;;11.10;84.65
19759;BME280;10038;42.662;23.278;2023-05-11T07:14:13;161687.50;;;11.38;84.31
19759;BME280;10038;42.662;23.278;2023-05-11T07:16:40;161687.50;;;11.38;83.39
19759;BME280;10038;42.662;23.278;2023-05-11T07:19:07;161656.81;;;11.26;83.48
19759;BME280;10038;42.662;23.278;2023-05-11T07:21:34;161676.84;;;11.34;83.61
19759;BME280;10038;42.662;23.278;2023-05-11T07:24:01;161667.50;;;11.31;82.82
19759;BME280;10038;42.662;23.278;2023-05-11T07:26:28;161732.88;;;11.55;83.02
19759;BME280;10038;42.662;23.278;2023-05-11T07:28:56;161746.19;;;11.60;82.14
19759;BME280;10038;42.662;23.278;2023-05-11T07:31:24;161823.63;;;11.90;81.47
19759;BME280;10038;42.662;23.278;2023-05-11T07:33:50;161788.94;;;11.76;81.06
19759;BME280;10038;42.662;23.278;2023-05-11T07:36:17;161771.63;;;11.70;81.85
19759;BME280;10038;42.662;23.278;2023-05-11T07:38:44;161734.22;;;11.56;82.03
19759;BME280;10038;42.662;23.278;2023-05-11T07:41:11;161707.50;;;11.46;81.83
19759;BME280;10038;42.662;23.278;2023-05-11T07:43:38;161683.53;;;11.37;82.16
19759;BME280;10038;42.662;23.278;2023-05-11T07:46:07;161644.81;;;11.22;83.51
19759;BME280;10038;42.662;23.278;2023-05-11T07:48:34;161706.19;;;11.45;83.05
19759;BME280;10038;42.662;23.278;2023-05-11T07:51:01;161714.16;;;11.48;82.19
19759;BME280;10038;42.662;23.278;2023-05-11T07:53:28;161755.53;;;11.64;82.19
19759;BME280;10038;42.662;23.278;2023-05-11T07:55:56;161818.28;;;11.88;81.07
19759;BME280;10038;42.662;23.278;2023-05-11T07:58:24;161802.28;;;11.81;80.24
19759;BME280;10038;42.662;23.278;2023-05-11T08:00:51;161907.72;;;12.21;79.33
19759;BME280;10038;42.662;23.278;2023-05-11T08:03:19;161981.16;;;12.49;79.07
19759;BME280;10038;42.662;23.278;2023-05-11T08:05:46;162050.53;;;12.75;77.50
19759;BME280;10038;42.662;23.278;2023-05-11T08:08:13;161977.09;;;12.48;76.69
19759;BME280;10038;42.662;23.278;2023-05-11T08:10:40;162029.19;;;12.67;76.13
19759;BME280;10038;42.662;23.278;2023-05-11T08:13:07;162136.06;;;13.08;75.39
19759;BME280;10038;42.662;23.278;2023-05-11T08:15:34;162005.13;;;12.58;74.97
19759;BME280;10038;42.662;23.278;2023-05-11T08:18:01;162018.53;;;12.63;75.01
19759;BME280;10038;42.662;23.278;2023-05-11T08:20:29;162149.44;;;13.13;74.42
19759;BME280;10038;42.662;23.278;2023-05-11T08:22:56;162194.81;;;13.30;73.96
19759;BME280;10038;42.662;23.278;2023-05-11T08:25:23;162156.13;;;13.15;72.39
19759;BME280;10038;42.662;23.278;2023-05-11T08:27:50;162083.94;;;12.88;73.69
19759;BME280;10038;42.662;23.278;2023-05-11T08:30:17;162066.56;;;12.81;75.05
19759;BME280;10038;42.662;23.278;2023-05-11T08:32:44;161970.44;;;12.45;74.88
19759;BME280;10038;42.662;23.278;2023-05-11T08:35:11;162021.16;;;12.64;75.12
19759;BME280;10038;42.662;23.278;2023-05-11T08:37:40;162026.50;;;12.66;74.39
19759;BME280;10038;42.662;23.278;2023-05-11T08:40:09;161925.03;;;12.28;75.25
19759;BME280;10038;42.662;23.278;2023-05-11T08:42:39;162022.50;;;12.65;74.81
19759;BME280;10038;42.662;23.278;2023-05-11T08:45:07;162079.91;;;12.86;74.06
19759;BME280;10038;42.662;23.278;2023-05-11T08:47:36;162103.97;;;12.95;73.17
19759;BME280;10038;42.662;23.278;2023-05-11T08:50:03;162079.91;;;12.86;73.57
19759;BME280;10038;42.662;23.278;2023-05-11T08:52:31;162216.19;;;13.38;73.04
19759;BME280;10038;42.662;23.278;2023-05-11T08:55:00;162395.28;;;14.05;70.49
19759;BME280;10038;42.662;23.278;2023-05-11T08:57:29;162260.28;;;13.54;70.89
19759;BME280;10038;42.662;23.278;2023-05-11T08:59:57;162289.69;;;13.66;70.91
19759;BME280;10038;42.662;23.278;2023-05-11T09:02:27;162152.09;;;13.14;71.60
19759;BME280;10038;42.662;23.278;2023-05-11T09:04:54;162221.56;;;13.40;71.84
19759;BME280;10038;42.662;23.278;2023-05-11T09:07:22;162094.63;;;12.92;72.57
19759;BME280;10038;42.662;23.278;2023-05-11T09:09:50;162031.88;;;12.68;74.65
19759;BME280;10038;42.662;23.278;2023-05-11T09:12:18;162077.28;;;12.85;73.87
19759;BME280;10038;42.662;23.278;2023-05-11T09:14:46;162196.16;;;13.30;73.26
19759;BME280;10038;42.662;23.278;2023-05-11T09:17:12;162234.94;;;13.45;72.25
19759;BME280;10038;42.662;23.278;2023-05-11T09:19:56;162232.22;;;13.44;72.60
19759;BME280;10038;42.662;23.278;2023-05-11T09:22:23;162157.47;;;13.16;73.21
19759;BME280;10038;42.662;23.278;2023-05-11T09:24:50;162164.13;;;13.18;73.90
19759;BME280;10038;42.662;23.278;2023-05-11T09:27:20;162034.50;;;12.69;75.24
19759;BME280;10038;42.662;23.278;2023-05-11T09:29:51;162001.16;;;12.57;75.56
19759;BME280;10038;42.662;23.278;2023-05-11T09:32:18;162018.53;;;12.63;75.67
19759;BME280;10038;42.662;23.278;2023-05-11T09:34:45;162153.44;;;13.14;74.47
19759;BME280;10038;42.662;23.278;2023-05-11T09:37:15;162200.19;;;13.32;73.53
19759;BME280;10038;42.662;23.278;2023-05-11T09:40:18;162365.88;;;13.94;72.24
19759;BME280;10038;42.662;23.278;2023-05-11T09:42:47;162313.75;;;13.75;72.36
19759;BME280;10038;42.662;23.278;2023-05-11T09:45:33;162194.81;;;13.30;73.74
19759;BME280;10038;42.662;23.278;2023-05-11T09:48:00;162141.44;;;13.10;74.34
19759;BME280;10038;42.662;23.278;2023-05-11T09:50:31;162240.25;;;13.47;73.75
19759;BME280;10038;42.662;23.278;2023-05-11T09:52:58;162160.09;;;13.17;73.52
19759;BME280;10038;42.662;23.278;2023-05-11T09:55:25;162234.94;;;13.45;74.40
19759;BME280;10038;42.662;23.278;2023-05-11T09:57:56;162214.91;;;13.37;72.83
19759;BME280;10038;42.662;23.278;2023-05-11T10:00:24;162317.72;;;13.76;73.69
19759;BME280;10038;42.662;23.278;2023-05-11T10:02:58;162341.78;;;13.85;72.58
19759;BME280;10038;42.662;23.278;2023-05-11T10:05:28;162196.16;;;13.30;74.54
19759;BME280;10038;42.662;23.278;2023-05-11T10:07:56;162293.72;;;13.67;74.99
19759;BME280;10038;42.662;23.278;2023-05-11T10:10:25;162405.94;;;14.09;72.88
19759;BME280;10038;42.662;23.278;2023-05-11T10:12:55;162248.28;;;13.50;74.13
19759;BME280;10038;42.662;23.278;2023-05-11T10:15:23;162245.59;;;13.49;74.06
19759;BME280;10038;42.662;23.278;2023-05-11T10:17:53;162218.88;;;13.39;74.95
19759;BME280;10038;42.662;23.278;2023-05-11T10:20:21;162301.72;;;13.70;73.42
19759;BME280;10038;42.662;23.278;2023-05-11T10:22:50;162240.25;;;13.47;75.12
19759;BME280;10038;42.662;23.278;2023-05-11T10:25:20;162249.63;;;13.50;74.99
19759;BME280;10038;42.662;23.278;2023-05-11T10:27:48;162328.44;;;13.80;74.01
19759;BME280;10038;42.662;23.278;2023-05-11T10:30:17;162379.22;;;13.99;73.23
19759;BME280;10038;42.662;23.278;2023-05-11T10:32:45;162375.22;;;13.98;74.03
19759;BME280;10038;42.662;23.278;2023-05-11T10:35:12;162491.56;;;14.42;72.25
19759;BME280;10038;42.662;23.278;2023-05-11T10:37:39;162523.63;;;14.54;71.32
19759;BME280;10038;42.662;23.278;2023-05-11T10:40:08;162759.03;;;15.43;68.03
19759;BME280;10038;42.662;23.278;2023-05-11T10:43:02;162764.38;;;15.45;68.22
19759;BME280;10038;42.662;23.278;2023-05-11T10:45:36;162910.25;;;16.00;66.62
19759;BME280;10038;42.662;23.278;2023-05-11T10:48:30;162949.09;;;16.14;65.17
19759;BME280;10038;42.662;23.278;2023-05-11T10:51:20;162808.56;;;15.61;67.56
19759;BME280;10038;42.662;23.278;2023-05-11T10:54:07;162733.56;;;15.33;68.89
19759;BME280;10038;42.662;23.278;2023-05-11T10:56:48;162706.84;;;15.23;70.18
19759;BME280;10038;42.662;23.278;2023-05-11T11:02:21;162791.16;;;15.55;67.24
19759;BME280;10038;42.662;23.278;2023-05-11T11:04:50;162713.53;;;15.25;67.68
19759;BME280;10038;42.662;23.278;2023-05-11T11:07:17;162729.59;;;15.31;67.38
19759;BME280;10038;42.662;23.278;2023-05-11T11:09:54;162781.81;;;15.51;66.95
19759;BME280;10038;42.662;23.278;2023-05-11T11:12:22;162787.16;;;15.53;66.94
19759;BME280;10038;42.662;23.278;2023-05-11T11:14:56;162710.84;;;15.24;66.81
19759;BME280;10038;42.662;23.278;2023-05-11T11:17:26;162689.44;;;15.16;67.51
19759;BME280;10038;42.662;23.278;2023-05-11T11:19:56;162551.69;;;14.64;69.54
19759;BME280;10038;42.662;23.278;2023-05-11T11:22:42;162582.47;;;14.76;69.62
19759;BME280;10038;42.662;23.278;2023-05-11T11:25:11;162609.19;;;14.86;69.33
19759;BME280;10038;42.662;23.278;2023-05-11T11:27:55;162456.72;;;14.29;69.68
19759;BME280;10038;42.662;23.278;2023-05-11T11:30:24;162638.63;;;14.97;68.97
19759;BME280;10038;42.662;23.278;2023-05-11T11:32:55;162642.66;;;14.99;68.73
19759;BME280;10038;42.662;23.278;2023-05-11T11:35:45;162688.13;;;15.16;68.67
19759;BME280;10038;42.662;23.278;2023-05-11T11:38:14;162646.63;;;15.00;68.82
19759;BME280;10038;42.662;23.278;2023-05-11T11:40:42;162581.13;;;14.75;69.56
19759;BME280;10038;42.662;23.278;2023-05-11T11:43:10;162622.59;;;14.91;69.80
19759;BME280;10038;42.662;23.278;2023-05-11T11:45:39;162668.03;;;15.08;70.10
19759;BME280;10038;42.662;23.278;2023-05-11T11:48:15;162740.25;;;15.35;69.11
19759;BME280;10038;42.662;23.278;2023-05-11T11:50:44;162609.19;;;14.86;69.15
19759;BME280;10038;42.662;23.278;2023-05-11T11:55:54;162510.25;;;14.49;70.83
19759;BME280;10038;42.662;23.278;2023-05-11T11:58:57;162562.41;;;14.68;69.93
19759;BME280;10038;42.662;23.278;2023-05-11T12:01:27;162654.66;;;15.03;69.19
19759;BME280;10038;42.662;23.278;2023-05-11T12:04:27;162502.25;;;14.46;69.94
19759;BME280;10038;42.662;23.278;2023-05-11T12:06:57;162341.78;;;13.85;71.08
19759;BME280;10038;42.662;23.278;2023-05-11T12:09:25;162371.19;;;13.96;71.98
19759;BME280;10038;42.662;23.278;2023-05-11T12:11:52;162285.69;;;13.64;73.16
19759;BME280;10038;42.662;23.278;2023-05-11T12:14:21;162317.72;;;13.76;72.95
19759;BME280;10038;42.662;23.278;2023-05-11T12:17:04;162333.78;;;13.82;73.38
19759;BME280;10038;42.662;23.278;2023-05-11T12:19:34;162385.91;;;14.02;72.46
19759;BME280;10038;42.662;23.278;2023-05-11T12:22:01;162372.53;;;13.97;72.38
19759;BME280;10038;42.662;23.278;2023-05-11T12:24:28;162341.78;;;13.85;73.20
19759;BME280;10038;42.662;23.278;2023-05-11T12:26:56;162329.78;;;13.81;73.60
19759;BME280;10038;42.662;23.278;2023-05-11T12:29:23;162287.03;;;13.65;73.86
19759;BME280;10038;42.662;23.278;2023-05-11T12:31:50;162347.13;;;13.87;73.48
19759;BME280;10038;42.662;23.278;2023-05-11T12:34:18;162304.38;;;13.71;74.05
19759;BME280;10038;42.662;23.278;2023-05-11T12:36:48;162256.28;;;13.53;74.76
19759;BME280;10038;42.662;23.278;2023-05-11T12:39:19;162106.63;;;12.96;75.09
19759;BME280;10038;42.662;23.278;2023-05-11T12:41:47;162177.50;;;13.23;76.05
19759;BME280;10038;42.662;23.278;2023-05-11T12:44:15;162132.00;;;13.06;76.56
19759;BME280;10038;42.662;23.278;2023-05-11T12:46:43;161986.47;;;12.51;77.67
19759;BME280;10038;42.662;23.278;2023-05-11T12:49:11;162075.94;;;12.85;78.28
19759;BME280;10038;42.662;23.278;2023-05-11T12:51:50;162112.00;;;12.98;78.47
19759;BME280;10038;42.662;23.278;2023-05-11T12:54:29;162107.97;;;12.97;78.06
19759;BME280;10038;42.662;23.278;2023-05-11T12:56:57;162098.66;;;12.93;77.99
19759;BME280;10038;42.662;23.278;2023-05-11T12:59:29;162077.28;;;12.85;78.30
19759;BME280;10038;42.662;23.278;2023-05-11T13:02:15;162120.00;;;13.01;78.31